sensor_id;sensor_type;location;lat;lon;timestamp;P1;durP1;ratioP1;P2;durP2;ratioP2
20336;SDS011;10326;53.660;10.200;2023-03-03T00:01:37;27.47;;;19.77;;
20336;SDS011;10326;53.660;10.200;2023-03-03T00:04:04;26.17;;;18.03;;
20336;SDS011;10326;53.660;10.200;2023-03-03T00:06:31;62.87;;;20.20;;
20336;SDS011;10326;53.660;10.200;2023-03-03T00:08:58;30.70;;;19.77;;
20336;SDS011;10326;53.660;10.200;2023-03-03T00:11:27;40.33;;;20.33;;
20336;SDS011;10326;53.660;10.200;2023-03-03T00:13:54;38.77;;;20.80;;
20336;SDS011;10326;53.660;10.200;2023-03-03T00:16:23;51.73;;;19.40;;
20336;SDS011;10326;53.660;10.200;2023-03-03T00:18:51;68.27;;;20.10;;
20336;SDS011;10326;53.660;10.200;2023-03-03T00:21:26;52.07;;;17.97;;
20336;SDS011;10326;53.660;10.200;2023-03-03T00:23:58;70.50;;;18.00;;
20336;SDS011;10326;53.660;10.200;2023-03-03T00:26:44;84.80;;;18.40;;
20336;SDS011;10326;53.660;10.200;2023-03-03T00:29:27;113.27;;;18.33;;
20336;SDS011;10326;53.660;10.200;2023-03-03T00:31:59;42.13;;;16.73;;
20336;SDS011;10326;53.660;10.200;2023-03-03T00:34:49;81.17;;;17.80;;
20336;SDS011;10326;53.660;10.200;2023-03-03T00:40:15;60.00;;;18.13;;
20336;SDS011;10326;53.660;10.200;2023-03-03T00:42:50;63.50;;;18.53;;
20336;SDS011;10326;53.660;10.200;2023-03-03T00:45:32;95.50;;;20.13;;
20336;SDS011;10326;53.660;10.200;2023-03-03T00:48:23;83.77;;;19.37;;
20336;SDS011;10326;53.660;10.200;2023-03-03T00:50:53;63.60;;;19.43;;
20336;SDS011;10326;53.660;10.200;2023-03-03T00:53:22;44.13;;;17.93;;
20336;SDS011;10326;53.660;10.200;2023-03-03T00:55:52;84.47;;;18.47;;
20336;SDS011;10326;53.660;10.200;2023-03-03T00:58:21;61.80;;;17.67;;
20336;SDS011;10326;53.660;10.200;2023-03-03T01:00:51;65.53;;;17.83;;
20336;SDS011;10326;53.660;10.200;2023-03-03T01:03:26;73.00;;;18.10;;
20336;SDS011;10326;53.660;10.200;2023-03-03T01:05:53;46.13;;;17.63;;
20336;SDS011;10326;53.660;10.200;2023-03-03T01:08:21;59.50;;;17.40;;
20336;SDS011;10326;53.660;10.200;2023-03-03T01:10:49;70.57;;;17.50;;
20336;SDS011;10326;53.660;10.200;2023-03-03T01:13:21;59.10;;;16.67;;
20336;SDS011;10326;53.660;10.200;2023-03-03T01:15:52;59.37;;;17.03;;
20336;SDS011;10326;53.660;10.200;2023-03-03T01:18:20;63.03;;;16.97;;
20336;SDS011;10326;53.660;10.200;2023-03-03T01:20:47;33.17;;;16.83;;
20336;SDS011;10326;53.660;10.200;2023-03-03T01:23:14;50.67;;;17.03;;
20336;SDS011;10326;53.660;10.200;2023-03-03T01:25:42;47.50;;;15.67;;
20336;SDS011;10326;53.660;10.200;2023-03-03T01:28:09;69.67;;;15.97;;
20336;SDS011;10326;53.660;10.200;2023-03-03T01:30:38;34.63;;;15.83;;
20336;SDS011;10326;53.660;10.200;2023-03-03T01:33:05;62.33;;;16.67;;
20336;SDS011;10326;53.660;10.200;2023-03-03T01:35:32;39.37;;;15.33;;
20336;SDS011;10326;53.660;10.200;2023-03-03T01:38:00;23.00;;;15.13;;
20336;SDS011;10326;53.660;10.200;2023-03-03T01:40:28;44.50;;;15.83;;
20336;SDS011;10326;53.660;10.200;2023-03-03T01:42:57;59.57;;;15.13;;
20336;SDS011;10326;53.660;10.200;2023-03-03T01:45:26;78.40;;;16.17;;
20336;SDS011;10326;53.660;10.200;2023-03-03T01:47:58;48.77;;;15.50;;
20336;SDS011;10326;53.660;10.200;2023-03-03T01:50:29;54.07;;;16.00;;
20336;SDS011;10326;53.660;10.200;2023-03-03T01:53:03;78.30;;;16.47;;
20336;SDS011;10326;53.660;10.200;2023-03-03T01:55:35;82.37;;;16.60;;
20336;SDS011;10326;53.660;10.200;2023-03-03T01:58:06;43.70;;;15.37;;
20336;SDS011;10326;53.660;10.200;2023-03-03T02:00:38;75.33;;;16.47;;
20336;SDS011;10326;53.660;10.200;2023-03-03T02:03:11;50.03;;;15.17;;
20336;SDS011;10326;53.660;10.200;2023-03-03T02:05:38;62.27;;;15.40;;
20336;SDS011;10326;53.660;10.200;2023-03-03T02:08:07;62.00;;;16.43;;
20336;SDS011;10326;53.660;10.200;2023-03-03T02:10:39;52.70;;;15.30;;
20336;SDS011;10326;53.660;10.200;2023-03-03T02:13:06;73.73;;;16.50;;
20336;SDS011;10326;53.660;10.200;2023-03-03T02:15:33;43.57;;;15.07;;
20336;SDS011;10326;53.660;10.200;2023-03-03T02:18:02;43.27;;;14.83;;
20336;SDS011;10326;53.660;10.200;2023-03-03T02:20:43;48.47;;;15.40;;
20336;SDS011;10326;53.660;10.200;2023-03-03T02:23:20;47.40;;;15.20;;
20336;SDS011;10326;53.660;10.200;2023-03-03T02:26:01;74.13;;;16.70;;
20336;SDS011;10326;53.660;10.200;2023-03-03T02:28:32;94.73;;;16.40;;
20336;SDS011;10326;53.660;10.200;2023-03-03T02:31:05;51.07;;;15.13;;
20336;SDS011;10326;53.660;10.200;2023-03-03T02:33:37;55.50;;;15.83;;
20336;SDS011;10326;53.660;10.200;2023-03-03T02:36:06;105.77;;;16.93;;
20336;SDS011;10326;53.660;10.200;2023-03-03T02:38:38;81.90;;;16.23;;
20336;SDS011;10326;53.660;10.200;2023-03-03T02:41:16;62.40;;;15.60;;
20336;SDS011;10326;53.660;10.200;2023-03-03T02:43:57;88.43;;;16.57;;
20336;SDS011;10326;53.660;10.200;2023-03-03T02:46:28;83.40;;;16.60;;
20336;SDS011;10326;53.660;10.200;2023-03-03T02:49:00;74.63;;;16.47;;
20336;SDS011;10326;53.660;10.200;2023-03-03T02:51:28;77.60;;;16.37;;
20336;SDS011;10326;53.660;10.200;2023-03-03T02:53:55;66.10;;;15.83;;
20336;SDS011;10326;53.660;10.200;2023-03-03T02:56:26;67.23;;;16.30;;
20336;SDS011;10326;53.660;10.200;2023-03-03T02:58:53;85.33;;;17.10;;
20336;SDS011;10326;53.660;10.200;2023-03-03T03:01:21;34.87;;;15.23;;
20336;SDS011;10326;53.660;10.200;2023-03-03T03:03:50;52.33;;;16.97;;
20336;SDS011;10326;53.660;10.200;2023-03-03T03:06:20;40.17;;;15.33;;
20336;SDS011;10326;53.660;10.200;2023-03-03T03:08:47;25.77;;;14.73;;
20336;SDS011;10326;53.660;10.200;2023-03-03T03:11:14;42.80;;;15.73;;
20336;SDS011;10326;53.660;10.200;2023-03-03T03:13:43;48.77;;;16.10;;
20336;SDS011;10326;53.660;10.200;2023-03-03T03:16:10;37.10;;;15.47;;
20336;SDS011;10326;53.660;10.200;2023-03-03T03:18:38;56.40;;;16.03;;
20336;SDS011;10326;53.660;10.200;2023-03-03T03:21:06;53.50;;;15.97;;
20336;SDS011;10326;53.660;10.200;2023-03-03T03:23:35;26.87;;;13.73;;
20336;SDS011;10326;53.660;10.200;2023-03-03T03:26:04;52.33;;;14.90;;
20336;SDS011;10326;53.660;10.200;2023-03-03T03:28:32;55.37;;;15.50;;
20336;SDS011;10326;53.660;10.200;2023-03-03T03:31:02;54.60;;;16.03;;
20336;SDS011;10326;53.660;10.200;2023-03-03T03:33:31;73.47;;;15.73;;
20336;SDS011;10326;53.660;10.200;2023-03-03T03:35:59;47.17;;;14.50;;
20336;SDS011;10326;53.660;10.200;2023-03-03T03:38:26;68.80;;;14.73;;
20336;SDS011;10326;53.660;10.200;2023-03-03T03:40:56;22.47;;;14.47;;
20336;SDS011;10326;53.660;10.200;2023-03-03T03:43:25;44.67;;;14.47;;
20336;SDS011;10326;53.660;10.200;2023-03-03T03:45:52;41.40;;;14.93;;
20336;SDS011;10326;53.660;10.200;2023-03-03T03:48:21;52.57;;;14.50;;
20336;SDS011;10326;53.660;10.200;2023-03-03T03:50:48;22.07;;;13.97;;
20336;SDS011;10326;53.660;10.200;2023-03-03T03:53:17;36.93;;;14.57;;
20336;SDS011;10326;53.660;10.200;2023-03-03T03:55:45;19.47;;;14.10;;
20336;SDS011;10326;53.660;10.200;2023-03-03T03:58:13;54.20;;;14.97;;
20336;SDS011;10326;53.660;10.200;2023-03-03T04:00:46;44.33;;;15.80;;
20336;SDS011;10326;53.660;10.200;2023-03-03T04:03:13;60.97;;;15.57;;
20336;SDS011;10326;53.660;10.200;2023-03-03T04:05:44;48.13;;;14.73;;
20336;SDS011;10326;53.660;10.200;2023-03-03T04:08:11;24.23;;;15.27;;
20336;SDS011;10326;53.660;10.200;2023-03-03T04:10:40;28.33;;;14.40;;
20336;SDS011;10326;53.660;10.200;2023-03-03T04:13:08;20.83;;;14.73;;
20336;SDS011;10326;53.660;10.200;2023-03-03T04:15:35;52.10;;;14.97;;
20336;SDS011;10326;53.660;10.200;2023-03-03T04:18:02;64.10;;;15.03;;
20336;SDS011;10326;53.660;10.200;2023-03-03T04:20:30;85.03;;;15.83;;
20336;SDS011;10326;53.660;10.200;2023-03-03T04:22:58;73.33;;;15.27;;
20336;SDS011;10326;53.660;10.200;2023-03-03T04:25:25;85.53;;;15.87;;
20336;SDS011;10326;53.660;10.200;2023-03-03T04:27:53;46.30;;;14.60;;
20336;SDS011;10326;53.660;10.200;2023-03-03T04:30:21;64.13;;;14.90;;
20336;SDS011;10326;53.660;10.200;2023-03-03T04:32:52;65.57;;;14.67;;
20336;SDS011;10326;53.660;10.200;2023-03-03T04:35:22;30.97;;;14.33;;
20336;SDS011;10326;53.660;10.200;2023-03-03T04:37:49;23.80;;;14.77;;
20336;SDS011;10326;53.660;10.200;2023-03-03T04:40:18;30.07;;;14.43;;
20336;SDS011;10326;53.660;10.200;2023-03-03T04:42:48;35.23;;;14.87;;
20336;SDS011;10326;53.660;10.200;2023-03-03T04:45:15;31.53;;;14.37;;
20336;SDS011;10326;53.660;10.200;2023-03-03T04:47:44;40.93;;;14.87;;
20336;SDS011;10326;53.660;10.200;2023-03-03T04:50:11;72.00;;;15.50;;
20336;SDS011;10326;53.660;10.200;2023-03-03T04:52:39;46.37;;;14.83;;
20336;SDS011;10326;53.660;10.200;2023-03-03T04:55:07;23.60;;;14.07;;
20336;SDS011;10326;53.660;10.200;2023-03-03T04:57:38;58.67;;;15.53;;
20336;SDS011;10326;53.660;10.200;2023-03-03T05:00:06;40.80;;;15.13;;
20336;SDS011;10326;53.660;10.200;2023-03-03T05:02:37;38.10;;;15.30;;
20336;SDS011;10326;53.660;10.200;2023-03-03T05:05:05;46.07;;;15.10;;
20336;SDS011;10326;53.660;10.200;2023-03-03T05:07:33;32.67;;;14.80;;
20336;SDS011;10326;53.660;10.200;2023-03-03T05:10:01;62.50;;;15.83;;
20336;SDS011;10326;53.660;10.200;2023-03-03T05:12:28;47.13;;;14.13;;
20336;SDS011;10326;53.660;10.200;2023-03-03T05:14:57;40.07;;;14.37;;
20336;SDS011;10326;53.660;10.200;2023-03-03T05:17:24;38.80;;;13.47;;
20336;SDS011;10326;53.660;10.200;2023-03-03T05:19:51;47.37;;;14.03;;
20336;SDS011;10326;53.660;10.200;2023-03-03T05:22:18;45.97;;;13.30;;
20336;SDS011;10326;53.660;10.200;2023-03-03T05:24:45;61.53;;;14.70;;
20336;SDS011;10326;53.660;10.200;2023-03-03T05:27:13;34.37;;;13.70;;
20336;SDS011;10326;53.660;10.200;2023-03-03T05:29:40;46.60;;;15.70;;
20336;SDS011;10326;53.660;10.200;2023-03-03T05:32:09;38.87;;;14.43;;
20336;SDS011;10326;53.660;10.200;2023-03-03T05:34:36;46.73;;;14.83;;
20336;SDS011;10326;53.660;10.200;2023-03-03T05:37:03;28.70;;;13.73;;
20336;SDS011;10326;53.660;10.200;2023-03-03T05:39:31;80.67;;;14.67;;
20336;SDS011;10326;53.660;10.200;2023-03-03T05:41:58;48.80;;;13.50;;
20336;SDS011;10326;53.660;10.200;2023-03-03T05:44:25;35.57;;;14.10;;
20336;SDS011;10326;53.660;10.200;2023-03-03T05:46:53;24.40;;;13.73;;
20336;SDS011;10326;53.660;10.200;2023-03-03T05:49:23;74.77;;;14.87;;
20336;SDS011;10326;53.660;10.200;2023-03-03T05:51:50;51.60;;;13.63;;
20336;SDS011;10326;53.660;10.200;2023-03-03T05:54:17;48.83;;;14.60;;
20336;SDS011;10326;53.660;10.200;2023-03-03T05:56:44;37.93;;;13.93;;
20336;SDS011;10326;53.660;10.200;2023-03-03T05:59:11;36.03;;;14.57;;
20336;SDS011;10326;53.660;10.200;2023-03-03T06:01:39;88.30;;;15.37;;
20336;SDS011;10326;53.660;10.200;2023-03-03T06:04:06;54.90;;;13.60;;
20336;SDS011;10326;53.660;10.200;2023-03-03T06:06:35;77.60;;;14.80;;
20336;SDS011;10326;53.660;10.200;2023-03-03T06:09:02;60.37;;;13.80;;
20336;SDS011;10326;53.660;10.200;2023-03-03T06:11:30;35.63;;;12.90;;
20336;SDS011;10326;53.660;10.200;2023-03-03T06:13:57;60.73;;;15.40;;
20336;SDS011;10326;53.660;10.200;2023-03-03T06:16:25;46.20;;;15.07;;
20336;SDS011;10326;53.660;10.200;2023-03-03T06:18:52;66.93;;;13.77;;
20336;SDS011;10326;53.660;10.200;2023-03-03T06:21:19;35.80;;;13.33;;
20336;SDS011;10326;53.660;10.200;2023-03-03T06:23:48;74.93;;;14.10;;
20336;SDS011;10326;53.660;10.200;2023-03-03T06:26:15;49.60;;;13.77;;
20336;SDS011;10326;53.660;10.200;2023-03-03T06:28:42;26.57;;;13.27;;
20336;SDS011;10326;53.660;10.200;2023-03-03T06:31:09;54.60;;;13.53;;
20336;SDS011;10326;53.660;10.200;2023-03-03T06:33:36;35.83;;;16.10;;
20336;SDS011;10326;53.660;10.200;2023-03-03T06:36:03;41.07;;;15.07;;
20336;SDS011;10326;53.660;10.200;2023-03-03T06:38:30;51.23;;;14.63;;
20336;SDS011;10326;53.660;10.200;2023-03-03T06:40:59;38.73;;;13.00;;
20336;SDS011;10326;53.660;10.200;2023-03-03T06:43:31;38.37;;;13.07;;
20336;SDS011;10326;53.660;10.200;2023-03-03T06:45:58;24.60;;;13.60;;
20336;SDS011;10326;53.660;10.200;2023-03-03T06:48:25;36.40;;;13.03;;
20336;SDS011;10326;53.660;10.200;2023-03-03T06:50:52;56.07;;;16.17;;
20336;SDS011;10326;53.660;10.200;2023-03-03T06:53:19;68.27;;;13.83;;
20336;SDS011;10326;53.660;10.200;2023-03-03T06:55:46;69.17;;;13.87;;
20336;SDS011;10326;53.660;10.200;2023-03-03T06:58:15;42.23;;;13.07;;
20336;SDS011;10326;53.660;10.200;2023-03-03T07:00:48;48.73;;;17.93;;
20336;SDS011;10326;53.660;10.200;2023-03-03T07:03:20;51.13;;;15.10;;
20336;SDS011;10326;53.660;10.200;2023-03-03T07:05:50;59.50;;;14.33;;
20336;SDS011;10326;53.660;10.200;2023-03-03T07:08:18;26.23;;;13.17;;
20336;SDS011;10326;53.660;10.200;2023-03-03T07:10:48;39.50;;;12.90;;
20336;SDS011;10326;53.660;10.200;2023-03-03T07:13:19;31.13;;;12.57;;
20336;SDS011;10326;53.660;10.200;2023-03-03T07:15:48;31.70;;;12.47;;
20336;SDS011;10326;53.660;10.200;2023-03-03T07:18:22;50.73;;;12.70;;
20336;SDS011;10326;53.660;10.200;2023-03-03T07:21:05;33.23;;;12.20;;
20336;SDS011;10326;53.660;10.200;2023-03-03T07:23:42;13.73;;;11.23;;
20336;SDS011;10326;53.660;10.200;2023-03-03T07:26:11;38.13;;;12.63;;
20336;SDS011;10326;53.660;10.200;2023-03-03T07:28:42;56.07;;;12.47;;
20336;SDS011;10326;53.660;10.200;2023-03-03T07:31:23;21.83;;;11.27;;
20336;SDS011;10326;53.660;10.200;2023-03-03T07:33:55;27.93;;;11.47;;
20336;SDS011;10326;53.660;10.200;2023-03-03T07:36:25;21.63;;;11.63;;
20336;SDS011;10326;53.660;10.200;2023-03-03T07:38:56;29.70;;;11.97;;
20336;SDS011;10326;53.660;10.200;2023-03-03T07:41:26;34.13;;;11.60;;
20336;SDS011;10326;53.660;10.200;2023-03-03T07:43:57;18.87;;;11.20;;
20336;SDS011;10326;53.660;10.200;2023-03-03T07:46:33;39.97;;;12.17;;
20336;SDS011;10326;53.660;10.200;2023-03-03T07:49:11;45.87;;;11.60;;
20336;SDS011;10326;53.660;10.200;2023-03-03T07:51:48;38.23;;;11.97;;
20336;SDS011;10326;53.660;10.200;2023-03-03T07:54:28;40.00;;;11.70;;
20336;SDS011;10326;53.660;10.200;2023-03-03T07:57:06;19.00;;;10.60;;
20336;SDS011;10326;53.660;10.200;2023-03-03T07:59:46;36.13;;;11.40;;
20336;SDS011;10326;53.660;10.200;2023-03-03T08:02:22;25.23;;;11.20;;
20336;SDS011;10326;53.660;10.200;2023-03-03T08:05:11;32.77;;;11.13;;
20336;SDS011;10326;53.660;10.200;2023-03-03T08:08:02;28.70;;;9.87;;
20336;SDS011;10326;53.660;10.200;2023-03-03T08:10:48;32.20;;;8.80;;
20336;SDS011;10326;53.660;10.200;2023-03-03T08:13:17;25.53;;;10.10;;
20336;SDS011;10326;53.660;10.200;2023-03-03T08:15:47;27.80;;;9.10;;
20336;SDS011;10326;53.660;10.200;2023-03-03T08:18:21;20.30;;;8.93;;
20336;SDS011;10326;53.660;10.200;2023-03-03T08:20:54;29.87;;;9.43;;
20336;SDS011;10326;53.660;10.200;2023-03-03T08:23:23;28.50;;;9.03;;
20336;SDS011;10326;53.660;10.200;2023-03-03T08:25:51;24.33;;;8.97;;
20336;SDS011;10326;53.660;10.200;2023-03-03T08:28:19;17.70;;;8.47;;
20336;SDS011;10326;53.660;10.200;2023-03-03T08:30:48;24.50;;;8.33;;
20336;SDS011;10326;53.660;10.200;2023-03-03T08:33:16;11.27;;;8.03;;
20336;SDS011;10326;53.660;10.200;2023-03-03T08:35:43;15.93;;;8.10;;
20336;SDS011;10326;53.660;10.200;2023-03-03T08:38:13;13.93;;;7.67;;
20336;SDS011;10326;53.660;10.200;2023-03-03T08:40:42;24.47;;;8.23;;
20336;SDS011;10326;53.660;10.200;2023-03-03T08:43:09;16.70;;;7.73;;
20336;SDS011;10326;53.660;10.200;2023-03-03T08:45:41;19.13;;;9.03;;
20336;SDS011;10326;53.660;10.200;2023-03-03T08:48:10;30.70;;;9.13;;
20336;SDS011;10326;53.660;10.200;2023-03-03T08:50:38;19.47;;;10.00;;
20336;SDS011;10326;53.660;10.200;2023-03-03T08:53:06;13.07;;;9.60;;
20336;SDS011;10326;53.660;10.200;2023-03-03T08:55:34;21.37;;;9.63;;
20336;SDS011;10326;53.660;10.200;2023-03-03T08:58:02;29.47;;;8.80;;
20336;SDS011;10326;53.660;10.200;2023-03-03T09:00:29;28.63;;;7.77;;
20336;SDS011;10326;53.660;10.200;2023-03-03T09:02:56;22.43;;;8.07;;
20336;SDS011;10326;53.660;10.200;2023-03-03T09:05:25;15.03;;;7.10;;
20336;SDS011;10326;53.660;10.200;2023-03-03T09:07:53;17.77;;;7.53;;
20336;SDS011;10326;53.660;10.200;2023-03-03T09:10:21;14.17;;;6.80;;
20336;SDS011;10326;53.660;10.200;2023-03-03T09:12:54;16.77;;;7.67;;
20336;SDS011;10326;53.660;10.200;2023-03-03T09:15:26;14.67;;;8.00;;
20336;SDS011;10326;53.660;10.200;2023-03-03T09:17:56;22.33;;;7.57;;
20336;SDS011;10326;53.660;10.200;2023-03-03T09:20:33;19.57;;;8.17;;
20336;SDS011;10326;53.660;10.200;2023-03-03T09:26:07;16.50;;;8.30;;
20336;SDS011;10326;53.660;10.200;2023-03-03T09:28:51;21.17;;;8.83;;
20336;SDS011;10326;53.660;10.200;2023-03-03T09:31:21;19.53;;;8.40;;
20336;SDS011;10326;53.660;10.200;2023-03-03T09:33:52;11.03;;;7.83;;
20336;SDS011;10326;53.660;10.200;2023-03-03T09:36:25;15.80;;;9.00;;
20336;SDS011;10326;53.660;10.200;2023-03-03T09:38:54;12.77;;;8.53;;
20336;SDS011;10326;53.660;10.200;2023-03-03T09:41:42;18.33;;;8.77;;
20336;SDS011;10326;53.660;10.200;2023-03-03T09:44:43;13.90;;;8.87;;
20336;SDS011;10326;53.660;10.200;2023-03-03T09:51:09;10.80;;;7.77;;
20336;SDS011;10326;53.660;10.200;2023-03-03T09:54:03;20.17;;;7.40;;
20336;SDS011;10326;53.660;10.200;2023-03-03T09:56:41;16.80;;;7.73;;
20336;SDS011;10326;53.660;10.200;2023-03-03T09:59:19;17.10;;;7.00;;
20336;SDS011;10326;53.660;10.200;2023-03-03T10:02:00;18.37;;;7.33;;
20336;SDS011;10326;53.660;10.200;2023-03-03T10:04:54;21.87;;;7.47;;
20336;SDS011;10326;53.660;10.200;2023-03-03T10:08:01;23.33;;;7.83;;
20336;SDS011;10326;53.660;10.200;2023-03-03T10:10:52;14.83;;;8.00;;
20336;SDS011;10326;53.660;10.200;2023-03-03T10:13:32;18.13;;;8.30;;
20336;SDS011;10326;53.660;10.200;2023-03-03T10:16:21;13.10;;;8.13;;
20336;SDS011;10326;53.660;10.200;2023-03-03T10:19:20;15.10;;;8.63;;
20336;SDS011;10326;53.660;10.200;2023-03-03T10:22:05;13.50;;;8.50;;
20336;SDS011;10326;53.660;10.200;2023-03-03T10:24:57;10.87;;;8.70;;
20336;SDS011;10326;53.660;10.200;2023-03-03T10:30:56;11.20;;;8.33;;
20336;SDS011;10326;53.660;10.200;2023-03-03T10:33:34;11.30;;;8.57;;
20336;SDS011;10326;53.660;10.200;2023-03-03T10:36:19;11.20;;;8.83;;
20336;SDS011;10326;53.660;10.200;2023-03-03T10:39:00;11.40;;;8.97;;
20336;SDS011;10326;53.660;10.200;2023-03-03T10:41:52;9.60;;;8.57;;
20336;SDS011;10326;53.660;10.200;2023-03-03T10:44:46;11.63;;;8.77;;
20336;SDS011;10326;53.660;10.200;2023-03-03T10:50:40;10.03;;;8.37;;
20336;SDS011;10326;53.660;10.200;2023-03-03T10:53:20;12.27;;;8.33;;
20336;SDS011;10326;53.660;10.200;2023-03-03T10:56:00;9.13;;;8.13;;
20336;SDS011;10326;53.660;10.200;2023-03-03T10:58:56;11.13;;;7.83;;
20336;SDS011;10326;53.660;10.200;2023-03-03T11:01:39;10.63;;;8.07;;
20336;SDS011;10326;53.660;10.200;2023-03-03T11:04:20;9.73;;;7.87;;
20336;SDS011;10326;53.660;10.200;2023-03-03T11:07:05;11.03;;;8.37;;
20336;SDS011;10326;53.660;10.200;2023-03-03T11:09:43;10.73;;;8.45;;
20336;SDS011;10326;53.660;10.200;2023-03-03T11:12:30;10.97;;;7.33;;
20336;SDS011;10326;53.660;10.200;2023-03-03T11:15:17;10.23;;;7.40;;
20336;SDS011;10326;53.660;10.200;2023-03-03T11:18:06;10.15;;;7.80;;
20336;SDS011;10326;53.660;10.200;2023-03-03T11:20:52;10.85;;;8.50;;
20336;SDS011;10326;53.660;10.200;2023-03-03T11:23:31;12.02;;;8.15;;
20336;SDS011;10326;53.660;10.200;2023-03-03T11:26:26;11.48;;;8.10;;
20336;SDS011;10326;53.660;10.200;2023-03-03T11:29:10;11.52;;;8.95;;
20336;SDS011;10326;53.660;10.200;2023-03-03T11:31:58;12.40;;;8.70;;
20336;SDS011;10326;53.660;10.200;2023-03-03T11:34:43;13.30;;;9.45;;
20336;SDS011;10326;53.660;10.200;2023-03-03T11:37:22;13.80;;;10.60;;
20336;SDS011;10326;53.660;10.200;2023-03-03T11:39:56;14.65;;;11.77;;
20336;SDS011;10326;53.660;10.200;2023-03-03T11:42:31;16.52;;;13.02;;
20336;SDS011;10326;53.660;10.200;2023-03-03T11:45:10;16.85;;;12.40;;
20336;SDS011;10326;53.660;10.200;2023-03-03T11:47:46;16.02;;;12.73;;
20336;SDS011;10326;53.660;10.200;2023-03-03T11:50:24;16.95;;;13.60;;
20336;SDS011;10326;53.660;10.200;2023-03-03T11:53:00;18.75;;;14.73;;
20336;SDS011;10326;53.660;10.200;2023-03-03T11:55:48;17.85;;;13.90;;
20336;SDS011;10326;53.660;10.200;2023-03-03T11:58:23;19.00;;;13.43;;
20336;SDS011;10326;53.660;10.200;2023-03-03T12:00:56;23.90;;;14.20;;
20336;SDS011;10326;53.660;10.200;2023-03-03T12:03:31;19.42;;;13.65;;
20336;SDS011;10326;53.660;10.200;2023-03-03T12:06:09;19.25;;;14.23;;
20336;SDS011;10326;53.660;10.200;2023-03-03T12:09:00;17.35;;;14.30;;
20336;SDS011;10326;53.660;10.200;2023-03-03T12:11:39;17.67;;;13.52;;
20336;SDS011;10326;53.660;10.200;2023-03-03T12:14:16;19.00;;;13.95;;
20336;SDS011;10326;53.660;10.200;2023-03-03T12:16:58;16.05;;;13.50;;
20336;SDS011;10326;53.660;10.200;2023-03-03T12:19:32;17.58;;;12.98;;
20336;SDS011;10326;53.660;10.200;2023-03-03T12:22:10;14.98;;;12.80;;
20336;SDS011;10326;53.660;10.200;2023-03-03T12:24:53;13.13;;;11.48;;
20336;SDS011;10326;53.660;10.200;2023-03-03T12:27:37;12.80;;;10.27;;
20336;SDS011;10326;53.660;10.200;2023-03-03T12:30:17;17.02;;;12.23;;
20336;SDS011;10326;53.660;10.200;2023-03-03T12:32:58;13.02;;;11.40;;
20336;SDS011;10326;53.660;10.200;2023-03-03T12:35:44;14.98;;;11.68;;
20336;SDS011;10326;53.660;10.200;2023-03-03T12:38:25;15.50;;;12.48;;
20336;SDS011;10326;53.660;10.200;2023-03-03T12:41:02;16.33;;;12.98;;
20336;SDS011;10326;53.660;10.200;2023-03-03T12:43:40;16.90;;;12.82;;
20336;SDS011;10326;53.660;10.200;2023-03-03T12:46:20;16.15;;;12.95;;
20336;SDS011;10326;53.660;10.200;2023-03-03T12:48:51;16.85;;;12.30;;
20336;SDS011;10326;53.660;10.200;2023-03-03T12:51:23;17.17;;;12.68;;
20336;SDS011;10326;53.660;10.200;2023-03-03T12:54:06;15.38;;;11.60;;
20336;SDS011;10326;53.660;10.200;2023-03-03T12:56:43;15.10;;;11.90;;
20336;SDS011;10326;53.660;10.200;2023-03-03T12:59:15;15.32;;;10.85;;
20336;SDS011;10326;53.660;10.200;2023-03-03T13:01:57;14.63;;;11.52;;
20336;SDS011;10326;53.660;10.200;2023-03-03T13:04:47;16.52;;;11.73;;
20336;SDS011;10326;53.660;10.200;2023-03-03T13:07:24;17.27;;;12.13;;
20336;SDS011;10326;53.660;10.200;2023-03-03T13:10:02;15.60;;;10.57;;
20336;SDS011;10326;53.660;10.200;2023-03-03T13:12:38;11.93;;;9.75;;
20336;SDS011;10326;53.660;10.200;2023-03-03T13:15:12;15.20;;;10.60;;
20336;SDS011;10326;53.660;10.200;2023-03-03T13:17:48;12.80;;;9.40;;
20336;SDS011;10326;53.660;10.200;2023-03-03T13:20:29;13.73;;;8.68;;
20336;SDS011;10326;53.660;10.200;2023-03-03T13:23:09;12.00;;;8.75;;
20336;SDS011;10326;53.660;10.200;2023-03-03T13:25:49;12.75;;;8.32;;
20336;SDS011;10326;53.660;10.200;2023-03-03T13:28:23;13.50;;;8.65;;
20336;SDS011;10326;53.660;10.200;2023-03-03T13:30:57;10.95;;;7.80;;
20336;SDS011;10326;53.660;10.200;2023-03-03T13:33:33;10.80;;;6.75;;
20336;SDS011;10326;53.660;10.200;2023-03-03T13:36:02;10.10;;;6.43;;
20336;SDS011;10326;53.660;10.200;2023-03-03T13:38:37;9.98;;;6.93;;
20336;SDS011;10326;53.660;10.200;2023-03-03T13:41:14;9.40;;;5.97;;
20336;SDS011;10326;53.660;10.200;2023-03-03T13:43:48;7.93;;;5.30;;
20336;SDS011;10326;53.660;10.200;2023-03-03T13:46:23;9.93;;;4.38;;
20336;SDS011;10326;53.660;10.200;2023-03-03T13:49:04;6.03;;;3.95;;
20336;SDS011;10326;53.660;10.200;2023-03-03T13:51:51;6.30;;;3.83;;
20336;SDS011;10326;53.660;10.200;2023-03-03T13:54:34;4.15;;;2.95;;
20336;SDS011;10326;53.660;10.200;2023-03-03T13:57:26;6.32;;;3.33;;
20336;SDS011;10326;53.660;10.200;2023-03-03T14:00:12;5.40;;;2.90;;
20336;SDS011;10326;53.660;10.200;2023-03-03T14:02:52;5.18;;;2.45;;
20336;SDS011;10326;53.660;10.200;2023-03-03T14:05:37;4.13;;;2.80;;
20336;SDS011;10326;53.660;10.200;2023-03-03T14:08:11;2.92;;;2.05;;
20336;SDS011;10326;53.660;10.200;2023-03-03T14:10:56;4.45;;;1.95;;
20336;SDS011;10326;53.660;10.200;2023-03-03T14:13:36;4.72;;;1.60;;
20336;SDS011;10326;53.660;10.200;2023-03-03T14:16:15;4.45;;;1.95;;
20336;SDS011;10326;53.660;10.200;2023-03-03T14:18:52;4.38;;;1.70;;
20336;SDS011;10326;53.660;10.200;2023-03-03T14:21:25;2.85;;;1.48;;
20336;SDS011;10326;53.660;10.200;2023-03-03T14:23:58;4.25;;;2.00;;
20336;SDS011;10326;53.660;10.200;2023-03-03T14:26:40;7.30;;;1.90;;
20336;SDS011;10326;53.660;10.200;2023-03-03T14:29:20;3.47;;;1.80;;
20336;SDS011;10326;53.660;10.200;2023-03-03T14:31:56;4.20;;;1.80;;
20336;SDS011;10326;53.660;10.200;2023-03-03T14:34:33;4.70;;;1.45;;
20336;SDS011;10326;53.660;10.200;2023-03-03T14:40:17;4.70;;;1.50;;
20336;SDS011;10326;53.660;10.200;2023-03-03T14:42:48;3.63;;;1.40;;
20336;SDS011;10326;53.660;10.200;2023-03-03T14:45:26;1.92;;;1.33;;
20336;SDS011;10326;53.660;10.200;2023-03-03T14:47:58;5.60;;;1.50;;
20336;SDS011;10326;53.660;10.200;2023-03-03T14:50:37;3.03;;;1.48;;
20336;SDS011;10326;53.660;10.200;2023-03-03T14:53:15;5.13;;;1.40;;
20336;SDS011;10326;53.660;10.200;2023-03-03T14:56:15;4.05;;;1.40;;
20336;SDS011;10326;53.660;10.200;2023-03-03T14:58:50;4.50;;;1.58;;
20336;SDS011;10326;53.660;10.200;2023-03-03T15:01:24;3.38;;;1.63;;
20336;SDS011;10326;53.660;10.200;2023-03-03T15:03:58;6.30;;;2.15;;
20336;SDS011;10326;53.660;10.200;2023-03-03T15:06:32;8.13;;;1.70;;
20336;SDS011;10326;53.660;10.200;2023-03-03T15:09:22;3.13;;;1.45;;
20336;SDS011;10326;53.660;10.200;2023-03-03T15:12:00;4.50;;;1.50;;